Terminal Aerodrome Forecast
Issued by NWS

Home | Current Version | Previous Version | Text Only | Print | Product List | Glossary On
Versions: 1 2 3 4 5 6 7 8 9 10 11 12 13 14 15 16 17 18 19 20 21 22 23 24 25 26
000
FTUS45 KBOU 251157
TAFBJC
TAF
KBJC 251157Z 2512/2612 36007KT P6SM SCT006 OVC022
      TEMPO 2512/2516 4SM -SHRA BR BKN006
     FM251900 07007KT P6SM VCSH OVC022 PROB30 2521/2603 4SM -SHRA
      OVC012
     FM260300 07005KT P6SM SCT012 BKN022
      TEMPO 2603/2607 BKN012
     FM260900 VRB04KT P6SM VCFG SCT006 SCT025=

USA.gov is the U.S. government's official web portal to all federal, state and local government web resources and services.